sensor_id;sensor_type;location;lat;lon;timestamp;pressure;altitude;pressure_sealevel;temperature;humidity
76126;BME280;65174;48.138;21.002;2023-04-16T00:02:10;99089.97;;;8.09;79.75
76126;BME280;65174;48.138;21.002;2023-04-16T00:05:13;99087.41;;;8.09;79.38
76126;BME280;65174;48.138;21.002;2023-04-16T00:08:15;99084.31;;;8.04;78.99
76126;BME280;65174;48.138;21.002;2023-04-16T00:11:17;99091.09;;;8.05;78.99
76126;BME280;65174;48.138;21.002;2023-04-16T00:14:19;99086.41;;;8.12;78.43
76126;BME280;65174;48.138;21.002;2023-04-16T00:17:21;99095.38;;;7.76;78.88
76126;BME280;65174;48.138;21.002;2023-04-16T00:20:23;99087.22;;;7.54;80.73
76126;BME280;65174;48.138;21.002;2023-04-16T00:23:25;99088.53;;;7.61;81.32
76126;BME280;65174;48.138;21.002;2023-04-16T00:26:27;99091.00;;;7.63;81.33
76126;BME280;65174;48.138;21.002;2023-04-16T00:29:29;99089.63;;;7.57;81.62
76126;BME280;65174;48.138;21.002;2023-04-16T00:32:31;99091.78;;;7.35;82.39
76126;BME280;65174;48.138;21.002;2023-04-16T00:35:33;99087.44;;;7.36;82.67
76126;BME280;65174;48.138;21.002;2023-04-16T00:38:35;99100.50;;;7.17;83.11
76126;BME280;65174;48.138;21.002;2023-04-16T00:41:38;99100.84;;;7.11;83.52
76126;BME280;65174;48.138;21.002;2023-04-16T00:44:39;99099.25;;;7.08;83.46
76126;BME280;65174;48.138;21.002;2023-04-16T00:47:41;99099.84;;;7.13;83.37
76126;BME280;65174;48.138;21.002;2023-04-16T00:50:44;99103.06;;;7.17;82.73
76126;BME280;65174;48.138;21.002;2023-04-16T00:53:46;99115.03;;;7.16;82.98
76126;BME280;65174;48.138;21.002;2023-04-16T00:56:48;99104.47;;;7.22;82.88
76126;BME280;65174;48.138;21.002;2023-04-16T00:59:51;99104.66;;;6.88;83.70
76126;BME280;65174;48.138;21.002;2023-04-16T01:02:55;99103.19;;;6.84;84.38
76126;BME280;65174;48.138;21.002;2023-04-16T01:05:57;99104.16;;;6.82;84.31
76126;BME280;65174;48.138;21.002;2023-04-16T01:08:59;99103.84;;;6.72;84.54
76126;BME280;65174;48.138;21.002;2023-04-16T01:12:01;99099.75;;;6.68;84.64
76126;BME280;65174;48.138;21.002;2023-04-16T01:15:03;99106.41;;;6.72;84.31
76126;BME280;65174;48.138;21.002;2023-04-16T01:18:15;99112.34;;;6.57;84.78
76126;BME280;65174;48.138;21.002;2023-04-16T01:21:18;99100.38;;;6.58;85.04
76126;BME280;65174;48.138;21.002;2023-04-16T01:24:19;99111.84;;;6.66;85.04
76126;BME280;65174;48.138;21.002;2023-04-16T01:27:21;99118.22;;;6.75;84.05
76126;BME280;65174;48.138;21.002;2023-04-16T01:30:24;99116.16;;;6.81;83.85
76126;BME280;65174;48.138;21.002;2023-04-16T01:33:58;99113.59;;;6.81;83.76
76126;BME280;65174;48.138;21.002;2023-04-16T01:37:02;99115.06;;;6.85;83.59
76126;BME280;65174;48.138;21.002;2023-04-16T01:40:05;99118.47;;;7.01;82.54
76126;BME280;65174;48.138;21.002;2023-04-16T01:43:07;99124.75;;;6.96;82.66
76126;BME280;65174;48.138;21.002;2023-04-16T01:46:17;99123.50;;;7.03;81.93
76126;BME280;65174;48.138;21.002;2023-04-16T01:49:21;99120.53;;;6.95;82.15
76126;BME280;65174;48.138;21.002;2023-04-16T01:52:24;99117.78;;;6.98;82.11
76126;BME280;65174;48.138;21.002;2023-04-16T01:55:26;99121.78;;;6.88;82.54
76126;BME280;65174;48.138;21.002;2023-04-16T01:58:28;99120.59;;;6.93;82.30
76126;BME280;65174;48.138;21.002;2023-04-16T02:01:30;99117.97;;;6.95;82.19
76126;BME280;65174;48.138;21.002;2023-04-16T02:04:33;99122.69;;;6.87;82.33
76126;BME280;65174;48.138;21.002;2023-04-16T02:07:35;99116.31;;;6.94;82.31
76126;BME280;65174;48.138;21.002;2023-04-16T02:10:37;99126.06;;;6.87;82.44
76126;BME280;65174;48.138;21.002;2023-04-16T02:13:39;99115.66;;;6.90;82.30
76126;BME280;65174;48.138;21.002;2023-04-16T02:16:41;99116.56;;;7.05;81.78
76126;BME280;65174;48.138;21.002;2023-04-16T02:19:50;99118.94;;;6.77;82.52
76126;BME280;65174;48.138;21.002;2023-04-16T02:22:53;99118.38;;;6.72;83.16
76126;BME280;65174;48.138;21.002;2023-04-16T02:25:57;99122.19;;;6.80;82.95
76126;BME280;65174;48.138;21.002;2023-04-16T02:28:59;99111.88;;;6.97;82.10
76126;BME280;65174;48.138;21.002;2023-04-16T02:32:09;99116.50;;;6.91;82.26
76126;BME280;65174;48.138;21.002;2023-04-16T02:35:12;99117.78;;;6.98;82.00
76126;BME280;65174;48.138;21.002;2023-04-16T02:38:14;99109.69;;;7.05;81.42
76126;BME280;65174;48.138;21.002;2023-04-16T02:41:16;99109.94;;;7.01;81.55
76126;BME280;65174;48.138;21.002;2023-04-16T02:44:18;99110.19;;;6.96;81.83
76126;BME280;65174;48.138;21.002;2023-04-16T02:47:21;99115.31;;;6.96;81.64
76126;BME280;65174;48.138;21.002;2023-04-16T02:50:23;99117.78;;;6.98;81.72
76126;BME280;65174;48.138;21.002;2023-04-16T02:53:25;99114.72;;;6.91;82.23
76126;BME280;65174;48.138;21.002;2023-04-16T02:56:27;99114.91;;;6.88;82.06
76126;BME280;65174;48.138;21.002;2023-04-16T02:59:29;99123.84;;;6.97;81.82
76126;BME280;65174;48.138;21.002;2023-04-16T03:02:31;99134.50;;;6.89;82.14
76126;BME280;65174;48.138;21.002;2023-04-16T03:05:33;99126.50;;;6.80;82.44
76126;BME280;65174;48.138;21.002;2023-04-16T03:08:35;99127.47;;;6.77;82.68
76126;BME280;65174;48.138;21.002;2023-04-16T03:11:37;99140.34;;;6.60;83.23
76126;BME280;65174;48.138;21.002;2023-04-16T03:14:39;99139.47;;;6.61;83.40
76126;BME280;65174;48.138;21.002;2023-04-16T03:17:41;99135.13;;;6.46;84.14
76126;BME280;65174;48.138;21.002;2023-04-16T03:20:43;99143.75;;;6.45;83.97
76126;BME280;65174;48.138;21.002;2023-04-16T03:23:46;99147.34;;;6.41;84.00
76126;BME280;65174;48.138;21.002;2023-04-16T03:26:48;99145.84;;;6.37;83.81
76126;BME280;65174;48.138;21.002;2023-04-16T03:29:51;99151.66;;;6.40;83.47
76126;BME280;65174;48.138;21.002;2023-04-16T03:32:53;99153.81;;;6.48;83.17
76126;BME280;65174;48.138;21.002;2023-04-16T03:35:58;99163.97;;;6.50;82.74
76126;BME280;65174;48.138;21.002;2023-04-16T03:39:03;99170.97;;;6.63;82.33
76126;BME280;65174;48.138;21.002;2023-04-16T03:42:05;99166.16;;;6.73;81.30
76126;BME280;65174;48.138;21.002;2023-04-16T03:45:09;99173.88;;;6.40;81.24
76126;BME280;65174;48.138;21.002;2023-04-16T03:48:12;99161.50;;;6.15;82.17
76126;BME280;65174;48.138;21.002;2023-04-16T03:51:14;99162.78;;;6.07;82.67
76126;BME280;65174;48.138;21.002;2023-04-16T03:54:16;99165.13;;;6.11;83.53
76126;BME280;65174;48.138;21.002;2023-04-16T03:57:25;99175.63;;;6.22;83.50
76126;BME280;65174;48.138;21.002;2023-04-16T04:00:31;99175.72;;;6.21;83.69
76126;BME280;65174;48.138;21.002;2023-04-16T04:03:45;99177.34;;;6.39;83.18
76126;BME280;65174;48.138;21.002;2023-04-16T04:06:47;99187.31;;;6.45;81.41
76126;BME280;65174;48.138;21.002;2023-04-16T04:09:50;99184.78;;;6.43;81.10
76126;BME280;65174;48.138;21.002;2023-04-16T04:12:52;99195.97;;;6.25;81.81
76126;BME280;65174;48.138;21.002;2023-04-16T04:15:54;99195.53;;;6.17;82.52
76126;BME280;65174;48.138;21.002;2023-04-16T04:18:57;99208.25;;;6.36;82.31
76126;BME280;65174;48.138;21.002;2023-04-16T04:22:01;99209.03;;;6.54;81.42
76126;BME280;65174;48.138;21.002;2023-04-16T04:25:03;99209.63;;;6.59;80.86
76126;BME280;65174;48.138;21.002;2023-04-16T04:28:06;99216.50;;;6.41;81.95
76126;BME280;65174;48.138;21.002;2023-04-16T04:31:08;99216.88;;;6.83;80.30
76126;BME280;65174;48.138;21.002;2023-04-16T04:34:10;99210.75;;;6.70;81.25
76126;BME280;65174;48.138;21.002;2023-04-16T04:37:12;99221.25;;;6.81;81.06
76126;BME280;65174;48.138;21.002;2023-04-16T04:40:14;99219.06;;;7.38;79.88
76126;BME280;65174;48.138;21.002;2023-04-16T04:43:20;99219.41;;;7.32;79.73
76126;BME280;65174;48.138;21.002;2023-04-16T04:46:24;99220.44;;;7.59;79.28
76126;BME280;65174;48.138;21.002;2023-04-16T04:49:26;99218.19;;;7.84;78.22
76126;BME280;65174;48.138;21.002;2023-04-16T04:52:28;99220.09;;;7.80;78.71
76126;BME280;65174;48.138;21.002;2023-04-16T04:55:30;99225.19;;;7.66;78.99
76126;BME280;65174;48.138;21.002;2023-04-16T04:58:32;99223.28;;;7.23;80.76
76126;BME280;65174;48.138;21.002;2023-04-16T05:01:35;99228.00;;;7.15;82.02
76126;BME280;65174;48.138;21.002;2023-04-16T05:04:37;99232.06;;;7.35;81.73
76126;BME280;65174;48.138;21.002;2023-04-16T05:07:39;99224.38;;;7.19;81.72
76126;BME280;65174;48.138;21.002;2023-04-16T05:10:41;99226.75;;;7.38;81.59
76126;BME280;65174;48.138;21.002;2023-04-16T05:13:43;99234.28;;;7.25;82.67
76126;BME280;65174;48.138;21.002;2023-04-16T05:16:45;99226.25;;;7.31;82.62
76126;BME280;65174;48.138;21.002;2023-04-16T05:19:47;99225.97;;;7.37;82.90
76126;BME280;65174;48.138;21.002;2023-04-16T05:22:50;99214.06;;;7.66;81.83
76126;BME280;65174;48.138;21.002;2023-04-16T05:25:52;99228.06;;;7.76;81.67
76126;BME280;65174;48.138;21.002;2023-04-16T05:28:53;99234.09;;;8.04;80.79
76126;BME280;65174;48.138;21.002;2023-04-16T05:31:55;99232.22;;;8.22;80.09
76126;BME280;65174;48.138;21.002;2023-04-16T05:34:57;99233.88;;;8.53;78.63
76126;BME280;65174;48.138;21.002;2023-04-16T05:37:59;99232.91;;;8.84;77.63
76126;BME280;65174;48.138;21.002;2023-04-16T05:41:01;99238.84;;;8.84;77.38
76126;BME280;65174;48.138;21.002;2023-04-16T05:44:03;99239.88;;;8.82;77.80
76126;BME280;65174;48.138;21.002;2023-04-16T05:47:05;99238.22;;;9.09;76.54
76126;BME280;65174;48.138;21.002;2023-04-16T05:50:10;99240.84;;;9.07;76.82
76126;BME280;65174;48.138;21.002;2023-04-16T05:53:12;99254.38;;;8.97;77.52
76126;BME280;65174;48.138;21.002;2023-04-16T05:56:14;99249.97;;;8.85;78.29
76126;BME280;65174;48.138;21.002;2023-04-16T05:59:17;99261.91;;;9.28;76.18
76126;BME280;65174;48.138;21.002;2023-04-16T06:02:19;99264.69;;;9.51;75.94
76126;BME280;65174;48.138;21.002;2023-04-16T06:05:21;99264.09;;;9.34;77.23
76126;BME280;65174;48.138;21.002;2023-04-16T06:08:23;99274.75;;;9.69;75.50
76126;BME280;65174;48.138;21.002;2023-04-16T06:11:25;99275.09;;;9.50;76.86
76126;BME280;65174;48.138;21.002;2023-04-16T06:14:28;99278.50;;;9.50;77.14
76126;BME280;65174;48.138;21.002;2023-04-16T06:17:30;99271.28;;;9.96;75.23
76126;BME280;65174;48.138;21.002;2023-04-16T06:20:32;99283.00;;;10.14;74.44
76126;BME280;65174;48.138;21.002;2023-04-16T06:23:35;99285.13;;;9.81;74.86
76126;BME280;65174;48.138;21.002;2023-04-16T06:26:36;99274.66;;;10.23;74.60
76126;BME280;65174;48.138;21.002;2023-04-16T06:29:38;99282.19;;;10.26;73.39
76126;BME280;65174;48.138;21.002;2023-04-16T06:32:42;99266.69;;;10.66;74.18
76126;BME280;65174;48.138;21.002;2023-04-16T06:35:45;99269.56;;;10.09;74.83
76126;BME280;65174;48.138;21.002;2023-04-16T06:38:47;99271.88;;;10.26;74.21
76126;BME280;65174;48.138;21.002;2023-04-16T06:41:48;99267.06;;;10.34;74.10
76126;BME280;65174;48.138;21.002;2023-04-16T06:44:52;99275.66;;;10.85;72.45
76126;BME280;65174;48.138;21.002;2023-04-16T06:47:54;99276.88;;;11.05;73.74
76126;BME280;65174;48.138;21.002;2023-04-16T06:50:56;99276.03;;;11.17;71.93
76126;BME280;65174;48.138;21.002;2023-04-16T06:53:58;99274.91;;;11.08;69.95
76126;BME280;65174;48.138;21.002;2023-04-16T06:57:00;99279.50;;;11.41;70.68
76126;BME280;65174;48.138;21.002;2023-04-16T07:00:02;99288.44;;;11.61;70.41
76126;BME280;65174;48.138;21.002;2023-04-16T07:03:05;99286.13;;;11.45;69.26
76126;BME280;65174;48.138;21.002;2023-04-16T07:06:08;99277.19;;;12.09;68.89
76126;BME280;65174;48.138;21.002;2023-04-16T07:09:10;99284.34;;;11.82;67.87
76126;BME280;65174;48.138;21.002;2023-04-16T07:12:13;99284.44;;;12.28;64.96
76126;BME280;65174;48.138;21.002;2023-04-16T07:15:15;99289.25;;;12.56;64.58
76126;BME280;65174;48.138;21.002;2023-04-16T07:18:17;99290.84;;;13.03;63.14
76126;BME280;65174;48.138;21.002;2023-04-16T07:21:21;99288.03;;;12.38;63.25
76126;BME280;65174;48.138;21.002;2023-04-16T07:24:23;99290.28;;;12.53;63.09
76126;BME280;65174;48.138;21.002;2023-04-16T07:27:25;99286.41;;;13.27;63.35
76126;BME280;65174;48.138;21.002;2023-04-16T07:30:27;99285.09;;;13.10;63.38
76126;BME280;65174;48.138;21.002;2023-04-16T07:33:34;99283.44;;;13.09;63.69
76126;BME280;65174;48.138;21.002;2023-04-16T07:36:37;99292.09;;;12.75;65.27
76126;BME280;65174;48.138;21.002;2023-04-16T07:39:40;99292.63;;;13.46;63.64
76126;BME280;65174;48.138;21.002;2023-04-16T07:42:42;99297.09;;;13.22;64.00
76126;BME280;65174;48.138;21.002;2023-04-16T07:45:44;99292.94;;;13.64;63.17
76126;BME280;65174;48.138;21.002;2023-04-16T07:48:46;99297.91;;;13.56;62.70
76126;BME280;65174;48.138;21.002;2023-04-16T07:51:48;99285.34;;;13.40;63.20
76126;BME280;65174;48.138;21.002;2023-04-16T07:54:50;99288.94;;;13.49;63.24
76126;BME280;65174;48.138;21.002;2023-04-16T07:57:52;99290.00;;;13.57;62.34
76126;BME280;65174;48.138;21.002;2023-04-16T08:00:54;99293.66;;;13.66;62.34
76126;BME280;65174;48.138;21.002;2023-04-16T08:03:57;99291.59;;;13.92;62.58
76126;BME280;65174;48.138;21.002;2023-04-16T08:06:59;99296.13;;;14.10;60.43
76126;BME280;65174;48.138;21.002;2023-04-16T08:10:01;99292.41;;;13.92;61.41
76126;BME280;65174;48.138;21.002;2023-04-16T08:13:03;99287.63;;;14.08;61.00
76126;BME280;65174;48.138;21.002;2023-04-16T08:16:05;99285.31;;;14.05;61.61
76126;BME280;65174;48.138;21.002;2023-04-16T08:19:07;99290.88;;;13.90;62.80
76126;BME280;65174;48.138;21.002;2023-04-16T08:22:11;99293.81;;;14.28;61.29
76126;BME280;65174;48.138;21.002;2023-04-16T08:25:13;99289.81;;;14.76;61.74
76126;BME280;65174;48.138;21.002;2023-04-16T08:28:16;99292.97;;;14.07;61.45
76126;BME280;65174;48.138;21.002;2023-04-16T08:31:18;99302.75;;;14.35;62.66
76126;BME280;65174;48.138;21.002;2023-04-16T08:34:20;99288.34;;;14.42;61.95
76126;BME280;65174;48.138;21.002;2023-04-16T08:37:22;99293.72;;;14.29;61.37
76126;BME280;65174;48.138;21.002;2023-04-16T08:40:25;99294.00;;;14.15;61.60
76126;BME280;65174;48.138;21.002;2023-04-16T08:43:32;99287.09;;;14.25;62.96
76126;BME280;65174;48.138;21.002;2023-04-16T08:46:36;99291.63;;;14.65;60.24
76126;BME280;65174;48.138;21.002;2023-04-16T08:49:42;99287.78;;;14.80;60.25
76126;BME280;65174;48.138;21.002;2023-04-16T08:53:08;99286.25;;;14.57;60.12
76126;BME280;65174;48.138;21.002;2023-04-16T08:56:12;99282.47;;;14.61;60.74
76126;BME280;65174;48.138;21.002;2023-04-16T08:59:15;99276.44;;;14.40;61.22
76126;BME280;65174;48.138;21.002;2023-04-16T09:02:18;99288.63;;;14.90;60.07
76126;BME280;65174;48.138;21.002;2023-04-16T09:05:21;99291.66;;;15.25;59.82
76126;BME280;65174;48.138;21.002;2023-04-16T09:08:26;99284.72;;;14.95;59.90
76126;BME280;65174;48.138;21.002;2023-04-16T09:11:28;99293.50;;;15.34;59.09
76126;BME280;65174;48.138;21.002;2023-04-16T09:14:31;99307.03;;;15.38;58.46
76126;BME280;65174;48.138;21.002;2023-04-16T09:17:33;99304.72;;;15.04;59.62
76126;BME280;65174;48.138;21.002;2023-04-16T09:20:35;99294.41;;;15.24;58.17
76126;BME280;65174;48.138;21.002;2023-04-16T09:23:37;99302.28;;;15.82;57.31
76126;BME280;65174;48.138;21.002;2023-04-16T09:26:41;99296.25;;;15.72;55.57
76126;BME280;65174;48.138;21.002;2023-04-16T09:29:46;99298.63;;;15.45;56.26
76126;BME280;65174;48.138;21.002;2023-04-16T09:32:49;99298.41;;;15.67;55.92
76126;BME280;65174;48.138;21.002;2023-04-16T09:35:52;99304.50;;;16.35;54.42
76126;BME280;65174;48.138;21.002;2023-04-16T09:38:54;99312.44;;;15.95;53.49
76126;BME280;65174;48.138;21.002;2023-04-16T09:41:58;99301.63;;;16.57;53.28
76126;BME280;65174;48.138;21.002;2023-04-16T09:45:00;99299.28;;;16.63;54.09
76126;BME280;65174;48.138;21.002;2023-04-16T09:48:06;99303.69;;;15.56;54.26
76126;BME280;65174;48.138;21.002;2023-04-16T09:51:08;99297.78;;;16.13;53.98
76126;BME280;65174;48.138;21.002;2023-04-16T09:54:10;99300.69;;;16.29;53.88
76126;BME280;65174;48.138;21.002;2023-04-16T09:57:12;99302.03;;;16.43;53.55
76126;BME280;65174;48.138;21.002;2023-04-16T10:00:17;99300.09;;;16.45;52.24
76126;BME280;65174;48.138;21.002;2023-04-16T10:03:30;99298.28;;;16.93;54.00
76126;BME280;65174;48.138;21.002;2023-04-16T10:06:33;99290.00;;;16.42;51.72
76126;BME280;65174;48.138;21.002;2023-04-16T10:09:36;99303.56;;;16.55;51.40
76126;BME280;65174;48.138;21.002;2023-04-16T10:12:39;99296.84;;;16.33;52.58
76126;BME280;65174;48.138;21.002;2023-04-16T10:15:42;99290.41;;;16.37;51.44
76126;BME280;65174;48.138;21.002;2023-04-16T10:18:45;99293.00;;;16.76;53.20
76126;BME280;65174;48.138;21.002;2023-04-16T10:21:50;99278.16;;;16.76;51.50
76126;BME280;65174;48.138;21.002;2023-04-16T10:24:52;99285.31;;;16.64;52.07
76126;BME280;65174;48.138;21.002;2023-04-16T10:27:56;99274.09;;;16.54;50.53
76126;BME280;65174;48.138;21.002;2023-04-16T10:30:58;99270.72;;;16.91;49.46
76126;BME280;65174;48.138;21.002;2023-04-16T10:34:02;99280.50;;;17.16;49.99
76126;BME280;65174;48.138;21.002;2023-04-16T10:37:04;99275.19;;;17.08;49.50
76126;BME280;65174;48.138;21.002;2023-04-16T10:40:26;99281.75;;;17.12;49.04
76126;BME280;65174;48.138;21.002;2023-04-16T10:43:35;99267.19;;;17.46;50.38
76126;BME280;65174;48.138;21.002;2023-04-16T10:46:41;99273.16;;;17.02;51.21
76126;BME280;65174;48.138;21.002;2023-04-16T10:49:46;99272.00;;;17.14;51.05
76126;BME280;65174;48.138;21.002;2023-04-16T10:53:18;99267.47;;;17.43;51.41
76126;BME280;65174;48.138;21.002;2023-04-16T10:56:25;99272.56;;;17.44;47.90
76126;BME280;65174;48.138;21.002;2023-04-16T10:59:32;99272.47;;;17.64;49.59
76126;BME280;65174;48.138;21.002;2023-04-16T11:02:39;99262.25;;;17.70;48.13
76126;BME280;65174;48.138;21.002;2023-04-16T11:05:45;99265.44;;;18.09;48.49
76126;BME280;65174;48.138;21.002;2023-04-16T11:08:50;99258.69;;;17.89;46.77
76126;BME280;65174;48.138;21.002;2023-04-16T11:11:56;99259.81;;;18.21;47.54
76126;BME280;65174;48.138;21.002;2023-04-16T11:15:06;99263.19;;;18.49;45.97
76126;BME280;65174;48.138;21.002;2023-04-16T11:18:08;99267.03;;;17.75;46.31
76126;BME280;65174;48.138;21.002;2023-04-16T11:21:11;99266.69;;;17.87;45.83
76126;BME280;65174;48.138;21.002;2023-04-16T11:24:14;99268.25;;;17.80;44.11
76126;BME280;65174;48.138;21.002;2023-04-16T11:27:16;99259.16;;;18.02;43.92
76126;BME280;65174;48.138;21.002;2023-04-16T11:30:27;99255.56;;;17.68;43.47
76126;BME280;65174;48.138;21.002;2023-04-16T11:33:30;99254.16;;;17.73;44.70
76126;BME280;65174;48.138;21.002;2023-04-16T11:36:48;99254.66;;;17.77;44.14
76126;BME280;65174;48.138;21.002;2023-04-16T11:39:51;99247.31;;;17.90;44.04
76126;BME280;65174;48.138;21.002;2023-04-16T11:42:53;99248.88;;;18.18;43.71
76126;BME280;65174;48.138;21.002;2023-04-16T11:48:57;99246.09;;;18.19;43.11
76126;BME280;65174;48.138;21.002;2023-04-16T11:52:00;99245.88;;;18.31;44.25
76126;BME280;65174;48.138;21.002;2023-04-16T11:55:02;99241.81;;;17.93;45.75
76126;BME280;65174;48.138;21.002;2023-04-16T11:58:12;99243.19;;;18.22;46.55
76126;BME280;65174;48.138;21.002;2023-04-16T12:01:19;99245.56;;;18.16;44.55
76126;BME280;65174;48.138;21.002;2023-04-16T12:04:25;99247.06;;;18.18;44.49
76126;BME280;65174;48.138;21.002;2023-04-16T12:07:28;99242.00;;;18.35;47.13
76126;BME280;65174;48.138;21.002;2023-04-16T12:10:32;99231.38;;;17.93;43.87
76126;BME280;65174;48.138;21.002;2023-04-16T12:13:35;99235.66;;;18.02;44.75
76126;BME280;65174;48.138;21.002;2023-04-16T12:16:41;99233.91;;;18.46;45.47
76126;BME280;65174;48.138;21.002;2023-04-16T12:19:58;99232.59;;;18.24;44.52
76126;BME280;65174;48.138;21.002;2023-04-16T12:23:00;99231.69;;;18.51;43.96
76126;BME280;65174;48.138;21.002;2023-04-16T12:26:07;99223.38;;;18.55;44.28
76126;BME280;65174;48.138;21.002;2023-04-16T12:29:25;99223.81;;;18.68;45.50
76126;BME280;65174;48.138;21.002;2023-04-16T12:32:28;99218.19;;;18.89;44.80
76126;BME280;65174;48.138;21.002;2023-04-16T12:35:31;99210.94;;;18.49;43.95
76126;BME280;65174;48.138;21.002;2023-04-16T12:38:34;99207.13;;;18.95;44.03
76126;BME280;65174;48.138;21.002;2023-04-16T12:41:37;99205.53;;;19.10;43.54
76126;BME280;65174;48.138;21.002;2023-04-16T12:44:39;99195.97;;;18.85;42.71
76126;BME280;65174;48.138;21.002;2023-04-16T12:47:41;99199.72;;;18.57;42.96
76126;BME280;65174;48.138;21.002;2023-04-16T12:50:43;99188.06;;;18.77;43.24
76126;BME280;65174;48.138;21.002;2023-04-16T12:53:45;99194.56;;;18.73;45.06
76126;BME280;65174;48.138;21.002;2023-04-16T12:56:47;99189.47;;;18.97;42.99
76126;BME280;65174;48.138;21.002;2023-04-16T12:59:49;99181.00;;;19.03;42.89
76126;BME280;65174;48.138;21.002;2023-04-16T13:02:51;99186.34;;;18.60;44.26
76126;BME280;65174;48.138;21.002;2023-04-16T13:05:54;99180.38;;;19.17;43.74
76126;BME280;65174;48.138;21.002;2023-04-16T13:08:57;99178.44;;;18.77;42.82
76126;BME280;65174;48.138;21.002;2023-04-16T13:11:59;99177.34;;;18.88;42.07
76126;BME280;65174;48.138;21.002;2023-04-16T13:15:03;99174.47;;;19.07;41.98
76126;BME280;65174;48.138;21.002;2023-04-16T13:18:05;99173.09;;;18.53;43.24
76126;BME280;65174;48.138;21.002;2023-04-16T13:21:07;99176.69;;;18.60;43.72
76126;BME280;65174;48.138;21.002;2023-04-16T13:24:10;99161.63;;;18.80;44.49
76126;BME280;65174;48.138;21.002;2023-04-16T13:27:12;99168.78;;;18.44;43.88
76126;BME280;65174;48.138;21.002;2023-04-16T13:30:16;99172.69;;;19.08;42.83
76126;BME280;65174;48.138;21.002;2023-04-16T13:33:19;99158.50;;;18.76;42.71
76126;BME280;65174;48.138;21.002;2023-04-16T13:36:22;99163.63;;;18.94;42.92
76126;BME280;65174;48.138;21.002;2023-04-16T13:39:27;99155.03;;;19.01;43.68
76126;BME280;65174;48.138;21.002;2023-04-16T13:42:31;99159.59;;;18.99;43.91
76126;BME280;65174;48.138;21.002;2023-04-16T13:45:33;99152.47;;;19.26;43.57
76126;BME280;65174;48.138;21.002;2023-04-16T13:48:36;99155.69;;;19.03;43.67
76126;BME280;65174;48.138;21.002;2023-04-16T13:51:38;99154.59;;;18.47;43.47
76126;BME280;65174;48.138;21.002;2023-04-16T13:54:39;99143.94;;;18.66;44.46
76126;BME280;65174;48.138;21.002;2023-04-16T13:57:53;99143.16;;;19.31;43.76
76126;BME280;65174;48.138;21.002;2023-04-16T14:00:56;99137.28;;;18.79;41.94
76126;BME280;65174;48.138;21.002;2023-04-16T14:04:00;99139.16;;;19.03;41.92
76126;BME280;65174;48.138;21.002;2023-04-16T14:07:07;99142.47;;;19.13;41.78
76126;BME280;65174;48.138;21.002;2023-04-16T14:10:09;99138.06;;;18.72;42.10
76126;BME280;65174;48.138;21.002;2023-04-16T14:13:11;99139.16;;;18.95;41.54
76126;BME280;65174;48.138;21.002;2023-04-16T14:16:13;99129.00;;;19.00;41.87
76126;BME280;65174;48.138;21.002;2023-04-16T14:19:16;99135.44;;;19.14;41.86
76126;BME280;65174;48.138;21.002;2023-04-16T14:22:19;99127.25;;;19.17;41.33
76126;BME280;65174;48.138;21.002;2023-04-16T14:25:22;99126.50;;;19.32;42.69
76126;BME280;65174;48.138;21.002;2023-04-16T14:28:24;99126.47;;;19.24;40.52
76126;BME280;65174;48.138;21.002;2023-04-16T14:31:26;99118.81;;;19.31;41.40
76126;BME280;65174;48.138;21.002;2023-04-16T14:34:29;99117.69;;;18.83;42.43
76126;BME280;65174;48.138;21.002;2023-04-16T14:37:31;99104.72;;;19.16;41.65
76126;BME280;65174;48.138;21.002;2023-04-16T14:40:37;99119.94;;;19.28;41.52
76126;BME280;65174;48.138;21.002;2023-04-16T14:43:39;99112.28;;;19.27;40.27
76126;BME280;65174;48.138;21.002;2023-04-16T14:46:42;99113.81;;;18.95;39.57
76126;BME280;65174;48.138;21.002;2023-04-16T14:49:44;99111.72;;;18.99;40.81
76126;BME280;65174;48.138;21.002;2023-04-16T14:52:46;99104.16;;;18.88;40.88
76126;BME280;65174;48.138;21.002;2023-04-16T14:55:50;99110.38;;;18.87;41.45
76126;BME280;65174;48.138;21.002;2023-04-16T14:58:52;99104.91;;;18.39;41.89
76126;BME280;65174;48.138;21.002;2023-04-16T15:01:55;99105.00;;;18.55;41.31
76126;BME280;65174;48.138;21.002;2023-04-16T15:05:00;99106.69;;;18.38;42.95
76126;BME280;65174;48.138;21.002;2023-04-16T15:08:02;99099.69;;;18.39;41.98
76126;BME280;65174;48.138;21.002;2023-04-16T15:11:04;99094.84;;;18.18;41.22
76126;BME280;65174;48.138;21.002;2023-04-16T15:14:06;99105.81;;;18.30;40.55
76126;BME280;65174;48.138;21.002;2023-04-16T15:17:08;99090.81;;;18.32;40.40
76126;BME280;65174;48.138;21.002;2023-04-16T15:20:11;99094.59;;;18.37;41.04
76126;BME280;65174;48.138;21.002;2023-04-16T15:23:13;99089.13;;;18.22;39.38
76126;BME280;65174;48.138;21.002;2023-04-16T15:26:15;99100.88;;;18.26;39.44
76126;BME280;65174;48.138;21.002;2023-04-16T15:29:17;99091.47;;;18.08;39.42
76126;BME280;65174;48.138;21.002;2023-04-16T15:32:19;99098.09;;;18.20;37.89
76126;BME280;65174;48.138;21.002;2023-04-16T15:35:23;99093.22;;;17.99;38.87
76126;BME280;65174;48.138;21.002;2023-04-16T15:38:25;99093.16;;;17.91;39.60
76126;BME280;65174;48.138;21.002;2023-04-16T15:41:29;99100.03;;;17.92;40.82
76126;BME280;65174;48.138;21.002;2023-04-16T15:44:33;99091.59;;;17.98;41.06
76126;BME280;65174;48.138;21.002;2023-04-16T15:47:35;99086.84;;;17.76;40.60
76126;BME280;65174;48.138;21.002;2023-04-16T15:50:40;99089.63;;;17.75;41.03
76126;BME280;65174;48.138;21.002;2023-04-16T15:53:42;99091.97;;;17.60;41.99
76126;BME280;65174;48.138;21.002;2023-04-16T15:56:46;99082.63;;;17.58;41.74
76126;BME280;65174;48.138;21.002;2023-04-16T15:59:48;99086.25;;;17.47;42.67
76126;BME280;65174;48.138;21.002;2023-04-16T16:03:07;99078.44;;;17.47;43.12
76126;BME280;65174;48.138;21.002;2023-04-16T16:06:25;99084.06;;;17.52;43.82
76126;BME280;65174;48.138;21.002;2023-04-16T16:09:30;99075.69;;;17.48;42.99